createdAt,value
2022-10-26T00:00:26.780Z,95152.13
2022-10-26T00:03:37.950Z,95148.03
2022-10-26T00:06:46.099Z,95142.34
2022-10-26T00:09:54.336Z,95132.53
2022-10-26T00:13:04.569Z,95130.72
2022-10-26T00:16:18.141Z,95124.44
2022-10-26T00:19:28.368Z,95120.69
2022-10-26T00:22:36.841Z,95114.75
2022-10-26T00:25:45.541Z,95107.25
2022-10-26T00:28:57.014Z,95104.19
2022-10-26T00:32:06.653Z,95105.28
2022-10-26T00:35:22.933Z,95107.31
2022-10-26T00:38:32.611Z,95092.53
2022-10-26T00:41:41.637Z,95095.66
2022-10-26T00:45:05.611Z,95093.81
2022-10-26T00:48:23.585Z,95091.56
2022-10-26T00:51:39.022Z,95088.56
2022-10-26T00:54:47.653Z,95107.47
2022-10-26T00:57:56.824Z,95118.72
2022-10-26T01:01:05.354Z,95123.81
2022-10-26T01:04:15.710Z,95117.00
2022-10-26T01:07:27.348Z,95112.25
2022-10-26T01:10:38.892Z,95100.88
2022-10-26T01:13:49.426Z,95106.69
2022-10-26T01:18:00.024Z,95105.88
2022-10-26T01:21:41.811Z,95092.38
2022-10-26T01:25:09.738Z,95106.50
2022-10-26T01:28:43.571Z,95118.66
2022-10-26T01:32:01.116Z,95119.84
2022-10-26T01:35:15.623Z,95132.44
2022-10-26T01:38:33.305Z,95129.31
2022-10-26T01:41:49.031Z,95132.63
2022-10-26T01:45:03.958Z,95125.66
2022-10-26T01:48:18.753Z,95129.97
2022-10-26T01:51:29.573Z,95115.00
2022-10-26T01:54:38.826Z,95113.44
2022-10-26T01:57:47.341Z,95109.34
2022-10-26T02:01:10.923Z,95116.88
2022-10-26T02:04:40.505Z,95128.25
2022-10-26T02:08:01.205Z,95120.38
2022-10-26T02:11:25.637Z,95105.28
2022-10-26T02:14:49.225Z,95091.13
2022-10-26T02:18:05.354Z,95097.03
2022-10-26T02:21:23.538Z,95135.09
2022-10-26T02:24:34.720Z,95111.13
2022-10-26T02:27:48.989Z,95100.06
2022-10-26T02:31:01.973Z,95114.28
2022-10-26T02:34:15.564Z,95119.19
2022-10-26T02:37:28.600Z,95095.84
2022-10-26T02:40:38.887Z,95127.88
2022-10-26T02:43:58.117Z,95144.59
2022-10-26T02:47:20.654Z,95144.25
2022-10-26T02:50:43.116Z,95153.91
2022-10-26T02:54:00.198Z,95134.41
2022-10-26T02:57:16.182Z,95135.88
2022-10-26T03:00:24.490Z,95143.91
2022-10-26T03:03:33.188Z,95130.31
2022-10-26T03:06:42.659Z,95107.78
2022-10-26T03:09:52.633Z,95096.72
2022-10-26T03:13:00.807Z,95094.25
2022-10-26T03:16:11.102Z,95088.09
2022-10-26T03:19:19.802Z,95095.72
2022-10-26T03:22:28.055Z,95097.38
2022-10-26T03:25:37.556Z,95102.97
2022-10-26T03:28:47.287Z,95084.03
2022-10-26T03:31:55.663Z,95074.38
2022-10-26T03:35:04.078Z,95072.94
2022-10-26T03:38:15.949Z,95074.38
2022-10-26T03:41:26.925Z,95085.69
2022-10-26T03:44:35.097Z,95088.09
2022-10-26T03:47:48.006Z,95086.50
2022-10-26T03:50:59.377Z,95091.63
2022-10-26T03:54:09.377Z,95081.38
2022-10-26T03:57:19.829Z,95074.38
2022-10-26T04:00:27.991Z,95095.78
2022-10-26T04:03:36.231Z,95089.78
2022-10-26T04:09:57.718Z,95082.81
2022-10-26T04:13:07.804Z,95098.22
2022-10-26T04:16:16.148Z,95094.69
2022-10-26T04:19:24.923Z,95098.38
2022-10-26T04:22:36.800Z,95106.44
2022-10-26T04:25:49.014Z,95103.38
2022-10-26T04:29:06.788Z,95113.22
2022-10-26T04:32:15.423Z,95098.84
2022-10-26T04:35:23.906Z,95115.28
2022-10-26T04:38:32.292Z,95102.94
2022-10-26T04:41:40.511Z,95106.66
2022-10-26T04:44:51.282Z,95102.56
2022-10-26T04:48:06.377Z,95108.28
2022-10-26T04:51:14.786Z,95108.31
2022-10-26T04:54:23.200Z,95121.44
2022-10-26T04:57:31.419Z,95136.00
2022-10-26T05:00:41.254Z,95158.38
2022-10-26T05:03:52.445Z,95183.81
2022-10-26T05:07:01.713Z,95195.31
2022-10-26T05:10:11.606Z,95203.50
2022-10-26T05:13:22.009Z,95206.38
2022-10-26T05:16:31.976Z,95233.31
2022-10-26T05:19:40.483Z,95243.59
2022-10-26T05:22:54.387Z,95253.88
2022-10-26T05:26:02.852Z,95253.88
2022-10-26T05:29:11.323Z,95253.28
2022-10-26T05:32:20.954Z,95246.06
2022-10-26T05:35:29.635Z,95248.50
2022-10-26T05:38:37.792Z,95247.91
2022-10-26T05:41:45.937Z,95232.88
2022-10-26T05:44:54.385Z,95233.63
2022-10-26T05:48:03.934Z,95239.63
2022-10-26T05:51:12.592Z,95247.69
2022-10-26T05:54:21.025Z,95254.91
2022-10-26T05:57:33.663Z,95274.66
2022-10-26T06:00:59.915Z,95276.06
2022-10-26T06:04:30.402Z,95276.09
2022-10-26T06:07:39.544Z,95286.59
2022-10-26T06:10:49.138Z,95298.88
2022-10-26T06:14:00.531Z,95307.53
2022-10-26T06:17:27.147Z,95303.84
2022-10-26T06:20:56.168Z,95316.16
2022-10-26T06:24:12.013Z,95318.22
2022-10-26T06:27:37.286Z,95330.34
2022-10-26T06:30:45.729Z,95314.91
2022-10-26T06:34:00.361Z,95312.03
2022-10-26T06:37:11.501Z,95321.28
2022-10-26T06:40:20.971Z,95316.56
2022-10-26T06:43:33.359Z,95323.56
2022-10-26T06:46:49.583Z,95327.22
2022-10-26T06:50:07.548Z,95321.72
2022-10-26T06:53:28.505Z,95320.06
2022-10-26T06:56:38.059Z,95321.91
2022-10-26T06:59:52.118Z,95316.16
2022-10-26T07:03:00.369Z,95305.28
2022-10-26T07:06:10.741Z,95308.56
2022-10-26T07:09:20.505Z,95308.38
2022-10-26T07:12:32.173Z,95303.84
2022-10-26T07:15:42.882Z,95315.13
2022-10-26T07:18:51.038Z,95319.03
2022-10-26T07:22:01.173Z,95325.41
2022-10-26T07:25:12.334Z,95327.06
2022-10-26T07:28:20.820Z,95321.09
2022-10-26T07:31:29.334Z,95323.75
2022-10-26T07:34:38.020Z,95338.78
2022-10-26T07:37:46.182Z,95332.81
2022-10-26T07:40:55.965Z,95336.28
2022-10-26T07:44:04.420Z,95341.00
2022-10-26T07:47:13.027Z,95340.78
2022-10-26T07:50:21.528Z,95333.78
2022-10-26T07:53:30.022Z,95335.22
2022-10-26T07:56:39.861Z,95333.34
2022-10-26T07:59:48.037Z,95330.66
2022-10-26T08:02:56.575Z,95320.16
2022-10-26T08:06:06.109Z,95316.41
2022-10-26T08:09:14.665Z,95314.53
2022-10-26T08:12:24.288Z,95303.81
2022-10-26T08:15:32.477Z,95301.56
2022-10-26T08:18:41.022Z,95306.91
2022-10-26T08:21:49.643Z,95299.88
2022-10-26T08:24:58.165Z,95303.13
2022-10-26T08:28:07.881Z,95308.91
2022-10-26T08:31:16.077Z,95307.53
2022-10-26T08:34:24.334Z,95311.50
2022-10-26T08:37:32.782Z,95309.38
2022-10-26T08:40:44.611Z,95315.69
2022-10-26T08:43:59.937Z,95312.91
2022-10-26T08:47:15.710Z,95309.63
2022-10-26T08:50:32.635Z,95320.72
2022-10-26T08:53:48.935Z,95323.97
2022-10-26T08:57:02.094Z,95319.38
2022-10-26T09:00:20.331Z,95322.75
2022-10-26T09:03:29.633Z,95320.91
2022-10-26T09:06:58.532Z,95330.69
2022-10-26T09:10:32.761Z,95337.22
2022-10-26T09:13:58.870Z,95336.19
2022-10-26T09:17:24.462Z,95334.16
2022-10-26T09:21:11.242Z,95343.50
2022-10-26T09:24:29.968Z,95344.84
2022-10-26T09:27:47.289Z,95339.81
2022-10-26T09:31:00.354Z,95330.09
2022-10-26T09:34:20.719Z,95328.25
2022-10-26T09:37:36.666Z,95333.22
2022-10-26T09:40:56.449Z,95327.25
2022-10-26T09:44:14.087Z,95332.16
2022-10-26T09:47:34.981Z,95333.81
2022-10-26T09:50:51.628Z,95335.81
2022-10-26T09:54:01.872Z,95330.56
2022-10-26T09:57:15.333Z,95346.41
2022-10-26T10:00:26.936Z,95351.66
2022-10-26T10:03:35.253Z,95367.84
2022-10-26T10:06:46.451Z,95363.25
2022-10-26T10:10:15.662Z,95373.34
2022-10-26T10:13:27.281Z,95373.53
2022-10-26T10:16:36.358Z,95373.94
2022-10-26T10:19:44.862Z,95382.72
2022-10-26T10:22:59.965Z,95384.84
2022-10-26T10:26:12.378Z,95385.16
2022-10-26T10:29:20.587Z,95387.84
2022-10-26T10:32:35.771Z,95396.94
2022-10-26T10:35:55.513Z,95392.50
2022-10-26T10:39:34.508Z,95397.59
2022-10-26T10:42:45.269Z,95402.84
2022-10-26T10:45:59.663Z,95398.00
2022-10-26T10:49:22.177Z,95399.06
2022-10-26T10:52:34.234Z,95404.03
2022-10-26T10:56:00.184Z,95397.22
2022-10-26T10:59:39.996Z,95395.72
2022-10-26T11:03:19.981Z,95397.53
2022-10-26T11:06:32.509Z,95406.22
2022-10-26T11:09:47.904Z,95411.59
2022-10-26T11:13:03.021Z,95402.88
2022-10-26T11:16:18.866Z,95412.31
2022-10-26T11:19:37.034Z,95413.75
2022-10-26T11:23:06.278Z,95411.72
2022-10-26T11:26:23.415Z,95412.75
2022-10-26T11:29:48.577Z,95415.44
2022-10-26T11:33:05.227Z,95412.16
2022-10-26T11:41:34.546Z,95412.75
2022-10-26T11:44:53.256Z,95416.38
2022-10-26T11:48:15.318Z,95420.38
2022-10-26T11:51:40.412Z,95414.44
2022-10-26T11:54:55.519Z,95418.78
2022-10-26T11:58:05.556Z,95424.72
2022-10-26T12:01:18.043Z,95425.38
2022-10-26T12:04:33.913Z,95426.50
2022-10-26T12:07:49.152Z,95432.53
2022-10-26T12:14:30.468Z,95442.19
2022-10-26T12:17:51.062Z,95442.03
2022-10-26T12:21:08.111Z,95444.47
2022-10-26T12:24:35.443Z,95444.38
2022-10-26T12:27:58.387Z,95444.03
2022-10-26T12:31:44.425Z,95451.41
2022-10-26T12:35:04.164Z,95455.50
2022-10-26T12:39:00.898Z,95456.91
2022-10-26T12:42:29.478Z,95463.69
2022-10-26T12:45:37.916Z,95464.81
2022-10-26T12:48:48.583Z,95464.84
2022-10-26T12:51:59.180Z,95467.31
2022-10-26T12:55:51.891Z,95471.34
2022-10-26T12:59:26.338Z,95472.41
2022-10-26T13:02:56.067Z,95470.16
2022-10-26T13:06:48.199Z,95478.03
2022-10-26T13:10:07.896Z,95481.94
2022-10-26T13:13:25.397Z,95482.28
2022-10-26T13:16:35.261Z,95478.00
2022-10-26T13:19:47.133Z,95488.03
2022-10-26T13:22:55.968Z,95487.34
2022-10-26T13:26:21.184Z,95487.34
2022-10-26T13:29:31.911Z,95491.59
2022-10-26T13:32:49.792Z,95491.41
2022-10-26T13:36:01.102Z,95493.66
2022-10-26T13:39:18.358Z,95497.50
2022-10-26T13:45:56.804Z,95503.88
2022-10-26T13:49:16.190Z,95506.72
2022-10-26T13:52:34.187Z,95501.94
2022-10-26T13:55:52.966Z,95505.00
2022-10-26T13:59:11.379Z,95508.25
2022-10-26T14:02:25.551Z,95509.91
2022-10-26T14:05:33.813Z,95511.91
2022-10-26T14:08:44.538Z,95517.78
2022-10-26T14:11:58.178Z,95512.88
2022-10-26T14:15:11.561Z,95509.56
2022-10-26T14:18:26.559Z,95524.94
2022-10-26T14:21:35.108Z,95521.44
2022-10-26T14:24:53.070Z,95516.34
2022-10-26T14:28:04.739Z,95521.88
2022-10-26T14:31:21.740Z,95511.06
2022-10-26T14:34:31.661Z,95529.16
2022-10-26T14:37:48.214Z,95531.09
2022-10-26T14:40:58.458Z,95525.47
2022-10-26T14:44:22.447Z,95529.59
2022-10-26T14:47:36.236Z,95534.72
2022-10-26T14:50:45.050Z,95531.44
2022-10-26T14:53:57.369Z,95539.06
2022-10-26T14:57:08.918Z,95540.13
2022-10-26T15:00:20.602Z,95537.41
2022-10-26T15:03:30.804Z,95541.00
2022-10-26T15:06:48.283Z,95549.19
2022-10-26T15:09:56.777Z,95556.19
2022-10-26T15:13:10.757Z,95556.63
2022-10-26T15:16:21.830Z,95560.84
2022-10-26T15:19:31.728Z,95562.81
2022-10-26T15:22:41.453Z,95565.28
2022-10-26T15:25:56.822Z,95568.28
2022-10-26T15:29:05.295Z,95573.75
2022-10-26T15:32:30.755Z,95575.41
2022-10-26T15:35:40.730Z,95570.91
2022-10-26T15:38:50.000Z,95575.69
2022-10-26T15:42:00.105Z,95576.94
2022-10-26T15:45:18.385Z,95577.38
2022-10-26T15:48:29.933Z,95582.66
2022-10-26T15:51:39.990Z,95582.72
2022-10-26T15:54:48.418Z,95586.06
2022-10-26T15:57:56.687Z,95590.53
2022-10-26T16:01:05.284Z,95591.69
2022-10-26T16:04:13.717Z,95592.34
2022-10-26T16:07:28.043Z,95592.53
2022-10-26T16:10:36.619Z,95593.84
2022-10-26T16:13:45.146Z,95602.53
2022-10-26T16:16:53.474Z,95607.09
2022-10-26T16:20:05.333Z,95601.28
2022-10-26T16:23:18.689Z,95619.38
2022-10-26T16:26:27.004Z,95613.69
2022-10-26T16:29:35.467Z,95610.81
2022-10-26T16:32:44.409Z,95616.22
2022-10-26T16:35:57.719Z,95618.13
2022-10-26T16:39:08.253Z,95616.66
2022-10-26T16:42:16.732Z,95625.38
2022-10-26T16:45:24.977Z,95627.84
2022-10-26T16:48:33.447Z,95628.72
2022-10-26T16:51:41.775Z,95635.16
2022-10-26T16:54:51.334Z,95631.25
2022-10-26T16:57:59.632Z,95639.09
2022-10-26T17:01:09.297Z,95644.66
2022-10-26T17:04:17.605Z,95654.00
2022-10-26T17:07:25.921Z,95652.53
2022-10-26T17:10:35.793Z,95652.53
2022-10-26T17:13:45.160Z,95658.56
2022-10-26T17:16:53.543Z,95654.41
2022-10-26T17:20:02.723Z,95658.56
2022-10-26T17:23:11.408Z,95668.63
2022-10-26T17:26:21.193Z,95672.78
2022-10-26T17:29:29.780Z,95676.72
2022-10-26T17:32:38.109Z,95685.38
2022-10-26T17:35:46.767Z,95687.69
2022-10-26T17:38:57.556Z,95690.38
2022-10-26T17:42:07.291Z,95694.47
2022-10-26T17:45:15.841Z,95706.06
2022-10-26T17:48:24.388Z,95699.25
2022-10-26T17:51:32.702Z,95705.00
2022-10-26T17:54:41.159Z,95722.56
2022-10-26T17:57:51.064Z,95713.09
2022-10-26T18:01:03.943Z,95723.75
2022-10-26T18:04:12.391Z,95728.28
2022-10-26T18:07:20.807Z,95733.81
2022-10-26T18:10:44.627Z,95738.16
2022-10-26T18:13:54.871Z,95750.47
2022-10-26T18:17:03.471Z,95755.34
2022-10-26T18:20:12.671Z,95749.97
2022-10-26T18:23:21.120Z,95755.06
2022-10-26T18:26:31.756Z,95755.66
2022-10-26T18:29:41.472Z,95756.44
2022-10-26T18:32:51.308Z,95757.63
2022-10-26T18:36:04.409Z,95761.91
2022-10-26T18:39:13.371Z,95759.38
2022-10-26T18:42:21.986Z,95761.41
2022-10-26T18:45:33.168Z,95771.00
2022-10-26T18:48:42.845Z,95772.59
2022-10-26T18:51:51.542Z,95776.25
2022-10-26T18:54:59.743Z,95777.03
2022-10-26T18:58:10.686Z,95773.47
2022-10-26T19:01:24.038Z,95781.25
2022-10-26T19:04:32.456Z,95785.34
2022-10-26T19:07:40.728Z,95788.75
2022-10-26T19:10:50.025Z,95792.03
2022-10-26T19:13:58.983Z,95797.75
2022-10-26T19:17:10.479Z,95796.69
2022-10-26T19:20:19.031Z,95802.06
2022-10-26T19:23:32.777Z,95799.34
2022-10-26T19:26:43.686Z,95806.66
2022-10-26T19:29:52.403Z,95805.59
2022-10-26T19:33:02.561Z,95800.81
2022-10-26T19:36:13.930Z,95808.94
2022-10-26T19:39:22.618Z,95814.09
2022-10-26T19:42:30.885Z,95813.19
2022-10-26T19:45:39.736Z,95815.41
2022-10-26T19:48:52.978Z,95817.25
2022-10-26T19:52:02.567Z,95820.63
2022-10-26T19:55:11.290Z,95824.81
2022-10-26T19:58:19.629Z,95820.78
2022-10-26T20:01:28.598Z,95826.63
2022-10-26T20:04:40.673Z,95831.50
2022-10-26T20:07:48.928Z,95827.81
2022-10-26T20:10:58.901Z,95830.84
2022-10-26T20:14:08.132Z,95833.59
2022-10-26T20:17:16.349Z,95839.16
2022-10-26T20:20:26.155Z,95833.16
2022-10-26T20:23:34.636Z,95834.00
2022-10-26T20:26:42.826Z,95835.00
2022-10-26T20:29:51.353Z,95832.97
2022-10-26T20:33:00.455Z,95841.41
2022-10-26T20:36:10.383Z,95835.44
2022-10-26T20:39:19.823Z,95830.94
2022-10-26T20:42:30.138Z,95836.84
2022-10-26T20:45:39.081Z,95839.41
2022-10-26T20:48:48.754Z,95837.84
2022-10-26T20:52:20.750Z,95842.34
2022-10-26T20:55:37.217Z,95847.97
2022-10-26T20:58:51.136Z,95838.41
2022-10-26T21:01:59.567Z,95850.59
2022-10-26T21:05:08.716Z,95838.94
2022-10-26T21:08:18.888Z,95847.03
2022-10-26T21:11:27.653Z,95844.53
2022-10-26T21:14:40.691Z,95842.19
2022-10-26T21:17:50.691Z,95843.53
2022-10-26T21:21:00.087Z,95849.41
2022-10-26T21:24:10.024Z,95844.81
2022-10-26T21:27:18.524Z,95849.31
2022-10-26T21:30:27.845Z,95852.06
2022-10-26T21:33:36.502Z,95861.81
2022-10-26T21:36:45.060Z,95861.06
2022-10-26T21:39:54.693Z,95862.56
2022-10-26T21:43:03.124Z,95859.28
2022-10-26T21:46:11.883Z,95861.38
2022-10-26T21:49:20.548Z,95862.03
2022-10-26T21:52:28.740Z,95857.59
2022-10-26T21:55:38.691Z,95865.56
2022-10-26T21:58:48.228Z,95867.66
2022-10-26T22:01:56.874Z,95867.75
2022-10-26T22:05:06.358Z,95867.28
2022-10-26T22:08:15.647Z,95876.47
2022-10-26T22:11:26.628Z,95880.50
2022-10-26T22:14:34.916Z,95877.56
2022-10-26T22:17:43.683Z,95877.38
2022-10-26T22:20:58.736Z,95875.47
2022-10-26T22:24:07.991Z,95879.03
2022-10-26T22:27:17.775Z,95877.91
2022-10-26T22:30:27.327Z,95875.81
2022-10-26T22:33:36.427Z,95881.75
2022-10-26T22:36:45.362Z,95870.81
2022-10-26T22:39:53.831Z,95870.00
2022-10-26T22:43:03.620Z,95884.91
2022-10-26T22:46:14.430Z,95879.31
2022-10-26T22:49:22.680Z,95872.88
2022-10-26T22:52:31.202Z,95876.22
2022-10-26T22:55:42.618Z,95882.38
2022-10-26T22:58:53.023Z,95877.22
2022-10-26T23:02:01.554Z,95876.88
2022-10-26T23:05:16.988Z,95868.56
2022-10-26T23:08:26.244Z,95868.47
2022-10-26T23:11:35.292Z,95864.91
2022-10-26T23:14:45.086Z,95876.63
2022-10-26T23:17:55.136Z,95873.00
2022-10-26T23:21:04.030Z,95866.41
2022-10-26T23:24:12.460Z,95867.03
2022-10-26T23:27:20.992Z,95861.06
2022-10-26T23:30:30.600Z,95857.63
2022-10-26T23:33:38.919Z,95864.78
2022-10-26T23:36:48.013Z,95866.63
2022-10-26T23:39:56.208Z,95868.63
2022-10-26T23:43:05.148Z,95864.19
2022-10-26T23:46:15.092Z,95867.84
2022-10-26T23:49:23.660Z,95881.31
2022-10-26T23:52:31.910Z,95875.00
2022-10-26T23:55:40.749Z,95870.78
2022-10-26T23:58:51.562Z,95875.78
